Time;durP1;ratioP1;P1;durP2;ratioP2;P2;SDS_P1;SDS_P2;PMS_P1;PMS_P2;Temp;Humidity;BMP_temperature;BMP_pressure;BME280_temperature;BME280_humidity;BME280_pressure;Samples;Min_cycle;Max_cycle;Signal;HPM_P1;HPM_P2
2022/05/22 00:01:03;;;;;;;3.53;3.23;;;;;;;10.19;100.00;97246.34;4926705;28;20911;-56
2022/05/22 00:03:31;;;;;;;3.73;3.47;;;;;;;10.06;100.00;97246.97;4970829;28;20769;-54
2022/05/22 00:06:01;;;;;;;3.20;3.00;;;;;;;9.94;100.00;97245.75;4964805;28;20325;-56
2022/05/22 00:08:29;;;;;;;3.30;3.10;;;;;;;9.83;100.00;97244.34;4969515;28;20287;-55
2022/05/22 00:10:57;;;;;;;3.83;3.63;;;;;;;9.81;100.00;97249.81;4967375;28;20215;-58
2022/05/22 00:13:25;;;;;;;3.70;3.50;;;;;;;9.88;100.00;97236.72;4956589;28;20837;-56
2022/05/22 00:16:41;;;;;;;3.93;3.60;;;;;;;9.95;100.00;97232.34;4926332;28;20237;-54
2022/05/22 00:19:12;;;;;;;3.23;3.03;;;;;;;9.79;100.00;97235.94;4967741;28;20479;-56
2022/05/22 00:21:43;;;;;;;3.33;3.10;;;;;;;9.72;100.00;97237.66;4966485;28;20289;-57
2022/05/22 00:24:12;;;;;;;3.90;3.60;;;;;;;9.68;100.00;97246.94;4963733;28;20198;-54
2022/05/22 00:26:41;;;;;;;4.00;3.70;;;;;;;9.72;100.00;97240.31;4969791;28;20237;-58
2022/05/22 00:29:10;;;;;;;3.97;3.43;;;;;;;9.68;100.00;97241.66;4901381;28;22276;-58
2022/05/22 00:31:38;;;;;;;4.40;3.60;;;;;;;9.68;100.00;97242.47;4968357;28;20305;-56
2022/05/22 00:34:06;;;;;;;3.50;3.30;;;;;;;9.63;100.00;97236.06;4971407;28;20625;-57
2022/05/22 00:36:35;;;;;;;3.40;3.20;;;;;;;9.62;100.00;97231.75;4970592;28;20264;-59
2022/05/22 00:39:05;;;;;;;3.53;3.27;;;;;;;9.62;100.00;97231.75;4972251;28;20210;-56
2022/05/22 00:41:34;;;;;;;3.90;3.67;;;;;;;9.59;100.00;97230.31;4969294;28;20295;-57
2022/05/22 00:44:04;;;;;;;3.53;3.27;;;;;;;9.48;100.00;97220.16;4950689;28;20313;-58
2022/05/22 00:46:33;;;;;;;3.23;2.83;;;;;;;9.43;100.00;97223.31;4924415;28;20241;-57
2022/05/22 00:49:05;;;;;;;3.63;3.30;;;;;;;9.40;100.00;97224.47;4969665;28;20635;-57
2022/05/22 00:51:37;;;;;;;3.30;3.10;;;;;;;9.36;100.00;97214.44;4967890;28;20308;-57
2022/05/22 00:54:09;;;;;;;4.10;3.70;;;;;;;9.30;100.00;97213.31;4970059;28;20784;-57
2022/05/22 00:56:39;;;;;;;4.00;3.70;;;;;;;9.21;100.00;97215.16;4968612;28;20257;-58
2022/05/22 00:59:13;;;;;;;3.30;3.20;;;;;;;9.11;100.00;97215.41;4968386;28;20304;-51
2022/05/22 01:01:42;;;;;;;3.97;3.67;;;;;;;9.04;100.00;97213.63;4898477;28;20741;-56
2022/05/22 01:04:17;;;;;;;8.17;3.73;;;;;;;9.03;100.00;97211.97;4966638;28;20205;-59
2022/05/22 01:06:45;;;;;;;5.87;4.10;;;;;;;8.95;100.00;97215.47;4968369;28;20921;-53
2022/05/22 01:09:15;;;;;;;4.00;3.70;;;;;;;9.01;100.00;97208.69;4970771;28;20244;-53
2022/05/22 01:11:43;;;;;;;3.90;3.50;;;;;;;9.06;100.00;97220.38;4964718;28;20774;-55
2022/05/22 01:14:14;;;;;;;4.10;3.90;;;;;;;9.12;100.00;97217.06;4970291;28;20763;-54
2022/05/22 01:16:42;;;;;;;3.50;3.20;;;;;;;9.18;100.00;97220.81;4895633;28;20229;-54
2022/05/22 01:19:13;;;;;;;3.90;3.70;;;;;;;9.27;100.00;97224.22;4967184;28;20206;-52
2022/05/22 01:21:41;;;;;;;3.63;3.37;;;;;;;9.29;100.00;97224.88;4964860;28;20210;-54
2022/05/22 01:24:11;;;;;;;3.67;3.47;;;;;;;9.32;100.00;97231.66;4969466;28;20431;-57
2022/05/22 01:26:39;;;;;;;3.70;3.40;;;;;;;9.27;100.00;97226.88;4962832;28;20615;-57
2022/05/22 01:29:07;;;;;;;5.20;3.77;;;;;;;9.29;100.00;97232.00;4968304;28;20239;-59
2022/05/22 01:31:36;;;;;;;3.20;3.00;;;;;;;9.25;100.00;97219.09;4907315;28;20296;-59
2022/05/22 01:34:04;;;;;;;3.73;3.47;;;;;;;9.22;100.00;97227.38;4967036;28;20558;-57
2022/05/22 01:36:32;;;;;;;3.57;3.37;;;;;;;9.19;100.00;97230.38;4965159;28;20400;-57
2022/05/22 01:39:01;;;;;;;4.33;3.63;;;;;;;9.11;100.00;97225.16;4968167;28;20765;-53
2022/05/22 01:41:30;;;;;;;4.60;3.43;;;;;;;9.03;100.00;97223.34;4967584;28;20288;-55
2022/05/22 01:43:59;;;;;;;3.80;3.37;;;;;;;9.01;100.00;97225.34;4967962;28;20318;-54
2022/05/22 01:46:27;;;;;;;3.20;3.10;;;;;;;9.03;100.00;97225.19;4949564;28;20276;-57
2022/05/22 01:48:56;;;;;;;4.33;4.03;;;;;;;9.03;100.00;97225.19;4923513;28;20495;-59
2022/05/22 01:51:25;;;;;;;4.17;3.60;;;;;;;8.94;100.00;97229.69;4969611;28;20288;-56
2022/05/22 01:53:54;;;;;;;3.73;3.43;;;;;;;8.95;100.00;97226.88;4965079;28;20332;-57
2022/05/22 01:56:22;;;;;;;3.57;3.30;;;;;;;8.88;100.00;97222.44;4968469;28;20316;-59
2022/05/22 01:58:51;;;;;;;3.57;3.23;;;;;;;8.66;100.00;97222.19;4966301;28;20237;-60
2022/05/22 02:01:20;;;;;;;4.43;3.67;;;;;;;8.59;100.00;97222.06;4950376;28;20672;-56
2022/05/22 02:03:48;;;;;;;3.67;3.47;;;;;;;8.50;100.00;97223.91;4920806;28;20553;-55
2022/05/22 02:06:16;;;;;;;3.33;3.23;;;;;;;8.42;100.00;97216.00;4969413;28;20555;-58
2022/05/22 02:08:43;;;;;;;3.67;3.47;;;;;;;8.37;100.00;97215.69;4967799;28;20316;-56
2022/05/22 02:11:11;;;;;;;5.70;3.63;;;;;;;8.35;100.00;97218.47;4968122;28;20667;-53
2022/05/22 02:13:43;;;;;;;4.23;3.30;;;;;;;8.27;100.00;97207.94;4967661;28;20782;-55
2022/05/22 02:16:13;;;;;;;3.87;3.67;;;;;;;8.25;100.00;97205.44;4952643;28;20465;-59
2022/05/22 02:18:41;;;;;;;4.17;3.87;;;;;;;8.25;100.00;97207.28;4893194;28;20646;-54
2022/05/22 02:21:09;;;;;;;3.93;3.73;;;;;;;8.16;100.00;97201.19;4966453;28;20235;-56
2022/05/22 02:23:38;;;;;;;3.97;3.67;;;;;;;8.17;100.00;97202.03;4966134;28;20229;-59
2022/05/22 02:26:10;;;;;;;4.10;3.80;;;;;;;8.24;100.00;97214.38;4963082;28;20232;-56
2022/05/22 02:28:39;;;;;;;5.07;4.00;;;;;;;8.25;100.00;97202.81;4969759;28;20632;-55
2022/05/22 02:31:08;;;;;;;3.90;3.70;;;;;;;8.26;100.00;97201.81;4955912;28;20310;-58
2022/05/22 02:33:38;;;;;;;4.13;3.83;;;;;;;8.33;100.00;97193.22;4966891;28;20217;-57
2022/05/22 02:36:08;;;;;;;4.37;4.03;;;;;;;8.37;100.00;97194.56;4931885;28;20344;-57
2022/05/22 02:38:36;;;;;;;4.13;3.70;;;;;;;8.29;100.00;97202.47;4971981;28;20968;-55
2022/05/22 02:41:10;;;;;;;4.63;4.07;;;;;;;8.21;100.00;97198.06;4964706;28;20308;-58
2022/05/22 02:43:38;;;;;;;3.80;3.60;;;;;;;8.16;100.00;97198.56;4967400;28;20317;-54
2022/05/22 02:46:09;;;;;;;3.67;3.47;;;;;;;8.15;100.00;97196.91;4964805;28;20260;-57
2022/05/22 02:48:39;;;;;;;4.70;4.23;;;;;;;8.23;100.00;97196.06;4955712;28;20297;-54
2022/05/22 02:51:11;;;;;;;4.13;3.80;;;;;;;8.23;100.00;97185.50;4928144;28;20300;-59
2022/05/22 02:53:39;;;;;;;4.13;3.50;;;;;;;8.28;100.00;97185.00;4968598;28;20240;-53
2022/05/22 02:56:08;;;;;;;4.10;3.77;;;;;;;8.29;100.00;97184.84;4969453;28;20308;-56
2022/05/22 02:58:36;;;;;;;3.87;3.67;;;;;;;8.30;100.00;97189.13;4966698;28;20833;-56
2022/05/22 03:01:04;;;;;;;3.97;3.73;;;;;;;8.15;100.00;97189.00;4965074;28;20761;-57
2022/05/22 03:03:33;;;;;;;3.63;3.43;;;;;;;8.26;100.00;97196.53;4951027;28;20787;-55
2022/05/22 03:08:49;;;;;;;4.07;3.87;;;;;;;8.26;100.00;97199.19;4966544;28;20308;-56
2022/05/22 03:11:17;;;;;;;4.10;3.70;;;;;;;8.23;100.00;97194.25;4960280;28;20497;-57
2022/05/22 03:13:45;;;;;;;3.97;3.57;;;;;;;8.16;100.00;97182.72;4971102;28;20660;-54
2022/05/22 03:16:13;;;;;;;4.17;3.80;;;;;;;8.07;100.00;97175.81;4966794;28;20439;-55
2022/05/22 03:18:42;;;;;;;4.47;3.83;;;;;;;7.97;100.00;97184.75;4955389;28;20487;-55
2022/05/22 03:21:12;;;;;;;3.90;3.70;;;;;;;7.88;100.00;97185.72;4926013;28;21059;-57
2022/05/22 03:23:41;;;;;;;4.00;3.63;;;;;;;7.85;100.00;97185.25;4965424;28;20253;-54
2022/05/22 03:26:10;;;;;;;4.93;3.93;;;;;;;7.80;100.00;97185.75;4962548;28;20280;-54
2022/05/22 03:28:39;;;;;;;4.17;3.97;;;;;;;7.82;100.00;97183.75;4965924;28;20252;-55
2022/05/22 03:31:07;;;;;;;3.80;3.50;;;;;;;7.78;100.00;97178.00;4963384;28;20625;-57
2022/05/22 03:33:35;;;;;;;3.17;3.00;;;;;;;7.74;100.00;97175.84;4953621;28;20678;-53
2022/05/22 03:36:05;;;;;;;4.00;3.80;;;;;;;7.72;100.00;97178.66;4947597;28;20784;-59
2022/05/22 03:38:34;;;;;;;3.93;3.70;;;;;;;7.77;100.00;97180.81;4954942;28;20701;-56
2022/05/22 03:41:03;;;;;;;4.80;4.27;;;;;;;7.84;100.00;97191.53;4966407;28;20207;-56
2022/05/22 03:43:31;;;;;;;4.10;3.80;;;;;;;7.99;100.00;97195.13;4963617;28;20559;-58
2022/05/22 03:45:59;;;;;;;4.40;4.10;;;;;;;8.08;100.00;97183.56;4964031;28;20226;-55
2022/05/22 03:48:27;;;;;;;3.87;3.67;;;;;;;8.16;100.00;97189.81;4957107;28;20209;-57
2022/05/22 03:50:56;;;;;;;3.97;3.77;;;;;;;8.23;100.00;97178.41;4952014;28;20292;-56
2022/05/22 03:53:24;;;;;;;3.97;3.60;;;;;;;8.39;100.00;97168.81;4920148;28;20295;-52
2022/05/22 03:55:54;;;;;;;3.97;3.77;;;;;;;8.45;100.00;97164.63;4967855;28;20332;-53
2022/05/22 03:58:22;;;;;;;6.80;3.90;;;;;;;8.35;100.00;97170.94;4965287;28;20368;-56
2022/05/22 04:00:50;;;;;;;4.33;4.00;;;;;;;8.37;100.00;97170.78;4968482;28;20329;-54
2022/05/22 04:03:18;;;;;;;5.23;3.73;;;;;;;8.31;100.00;97174.09;4964178;28;20514;-54
2022/05/22 04:05:47;;;;;;;5.17;4.40;;;;;;;8.18;100.00;97167.53;4951637;28;20237;-57
2022/05/22 04:08:15;;;;;;;6.63;3.87;;;;;;;8.10;100.00;97165.72;4928744;28;20237;-58
2022/05/22 04:10:43;;;;;;;5.27;3.60;;;;;;;8.11;100.00;97161.28;4969430;28;20201;-58
2022/05/22 04:13:12;;;;;;;9.73;4.60;;;;;;;8.08;100.00;97159.81;4960493;28;20712;-55
2022/05/22 04:15:41;;;;;;;4.23;3.60;;;;;;;8.11;100.00;97162.09;4946645;28;20324;-56
2022/05/22 04:18:09;;;;;;;9.03;4.20;;;;;;;8.34;100.00;97153.47;4965778;28;20451;-52
2022/05/22 04:20:37;;;;;;;5.30;4.30;;;;;;;8.47;100.00;97154.72;4946667;28;20237;-54
2022/05/22 04:25:53;;;;;;;4.97;4.57;;;;;;;8.77;100.00;97161.09;4964410;28;20280;-57
2022/05/22 04:28:23;;;;;;;5.20;3.80;;;;;;;9.04;100.00;97158.13;4947808;28;20332;-55
2022/05/22 04:30:52;;;;;;;4.53;4.13;;;;;;;9.22;100.00;97153.38;4963245;28;20404;-53
2022/05/22 04:33:20;;;;;;;5.60;3.90;;;;;;;9.43;100.00;97159.84;4951535;28;20689;-54
2022/05/22 04:35:48;;;;;;;4.27;3.97;;;;;;;9.57;100.00;97152.94;4964602;28;20465;-52
2022/05/22 04:38:17;;;;;;;4.68;4.38;;;;;;;9.79;100.00;97156.56;4948502;28;20502;-57
2022/05/22 04:40:54;;;;;;;4.47;4.07;;;;;;;9.94;100.00;97153.09;4930472;28;20552;-58
2022/05/22 04:43:24;;;;;;;4.73;4.43;;;;;;;10.04;100.00;97143.09;4965906;28;20208;-54
2022/05/22 04:45:52;;;;;;;3.60;3.30;;;;;;;10.33;100.00;97140.63;4965569;28;20343;-54
2022/05/22 04:48:22;;;;;;;3.97;3.75;;;;;;;10.43;100.00;97138.53;4967066;28;21019;-59
2022/05/22 04:50:52;;;;;;;3.97;3.60;;;;;;;10.64;100.00;97127.19;4955893;28;20843;-54
2022/05/22 04:53:23;;;;;;;4.23;3.97;;;;;;;10.64;100.00;97129.03;4946211;28;20261;-58
2022/05/22 04:55:52;;;;;;;3.70;3.40;;;;;;;11.13;100.00;97133.63;4949681;28;20270;-52
2022/05/22 04:58:21;;;;;;;3.73;3.53;;;;;;;11.25;100.00;97127.81;4967893;28;20241;-53
2022/05/22 05:00:50;;;;;;;5.20;4.00;;;;;;;11.31;100.00;97132.38;4966002;28;20301;-54
2022/05/22 05:03:19;;;;;;;4.57;4.20;;;;;;;11.41;100.00;97129.41;4968745;28;20210;-56
2022/05/22 05:05:55;;;;;;;3.90;3.60;;;;;;;11.81;100.00;97135.03;4951854;28;20260;-57
2022/05/22 05:08:24;;;;;;;5.38;4.30;;;;;;;11.87;100.00;97134.25;4952998;28;20490;-56
2022/05/22 05:10:53;;;;;;;5.83;4.23;;;;;;;11.73;100.00;97125.38;4927415;28;20221;-53
2022/05/22 05:13:21;;;;;;;4.77;3.73;;;;;;;12.01;100.00;97121.13;4969501;28;20295;-56
2022/05/22 05:16:00;;;;;;;4.27;3.87;;;;;;;11.88;100.00;97127.13;4965440;28;20316;-52
2022/05/22 05:18:28;;;;;;;7.60;4.00;;;;;;;11.93;100.00;97134.50;4969623;28;20228;-57
2022/05/22 05:20:59;;;;;;;4.30;4.10;;;;;;;11.93;100.00;97137.97;4955061;28;20205;-54
2022/05/22 05:23:27;;;;;;;3.97;3.77;;;;;;;12.09;100.00;97133.41;4933351;28;20337;-55
2022/05/22 05:25:55;;;;;;;4.13;3.83;;;;;;;12.20;100.00;97140.84;4931647;28;20229;-56
2022/05/22 05:28:24;;;;;;;4.50;4.03;;;;;;;12.42;100.00;97138.91;4955080;28;20325;-58
2022/05/22 05:30:52;;;;;;;3.90;3.57;;;;;;;12.68;100.00;97148.00;4956038;28;20364;-50
2022/05/22 05:33:22;;;;;;;5.00;4.50;;;;;;;12.73;100.00;97150.91;4957699;28;20214;-55
2022/05/22 05:35:50;;;;;;;4.40;4.00;;;;;;;12.80;100.00;97147.47;4955282;28;20321;-55
2022/05/22 05:38:18;;;;;;;4.43;4.10;;;;;;;13.14;100.00;97145.72;4954733;28;20285;-51
2022/05/22 05:41:07;;;;;;;3.70;3.50;;;;;;;13.37;100.00;97147.19;4929051;28;20209;-55
2022/05/22 05:43:37;;;;;;;3.70;3.40;;;;;;;13.46;100.00;97156.66;4969179;28;20518;-55
2022/05/22 05:46:05;;;;;;;3.73;3.43;;;;;;;13.54;100.00;97155.63;4970278;28;20261;-57
2022/05/22 05:48:42;;;;;;;4.00;3.70;;;;;;;13.64;100.00;97158.72;4963908;28;20254;-52
2022/05/22 05:51:13;;;;;;;4.10;3.87;;;;;;;13.75;100.00;97149.28;4952968;28;20638;-56
2022/05/22 05:53:41;;;;;;;3.33;3.13;;;;;;;14.02;100.00;97146.59;4958876;28;20235;-52
2022/05/22 05:56:10;;;;;;;4.27;3.80;;;;;;;13.96;100.00;97140.25;4943520;28;20256;-57
2022/05/22 05:58:52;;;;;;;4.17;3.77;;;;;;;13.93;100.00;97134.53;4972187;28;20205;-53
2022/05/22 06:01:21;;;;;;;6.10;4.03;;;;;;;14.17;100.00;97136.53;4946424;28;20304;-51
2022/05/22 06:03:51;;;;;;;3.33;3.13;;;;;;;14.30;100.00;97129.56;4961616;28;20210;-55
2022/05/22 06:06:20;;;;;;;3.20;3.00;;;;;;;14.31;100.00;97125.84;4950383;28;20234;-52
2022/05/22 06:08:48;;;;;;;2.97;2.70;;;;;;;14.43;100.00;97118.84;4970334;28;20300;-54
2022/05/22 06:11:16;;;;;;;4.30;3.63;;;;;;;14.69;100.00;97122.44;4950501;28;20705;-53
2022/05/22 06:13:45;;;;;;;3.37;2.93;;;;;;;14.90;100.00;97126.69;4929605;28;20293;-55
2022/05/22 06:16:13;;;;;;;3.50;2.73;;;;;;;14.97;100.00;97125.81;4958586;28;21053;-58
2022/05/22 06:18:42;;;;;;;4.53;3.00;;;;;;;14.93;100.00;97119.28;4959297;28;20211;-57
2022/05/22 06:21:14;;;;;;;4.30;4.00;;;;;;;15.18;100.00;97135.34;4959746;28;20265;-60
2022/05/22 06:23:43;;;;;;;4.30;3.10;;;;;;;15.23;100.00;97127.50;4971848;28;20828;-55
2022/05/22 06:26:12;;;;;;;3.80;3.07;;;;;;;15.31;100.00;97123.78;4954638;28;20606;-58
2022/05/22 06:28:41;;;;;;;3.97;3.17;;;;;;;15.34;100.00;97118.84;4927399;28;20385;-55
2022/05/22 06:31:11;;;;;;;4.63;3.20;;;;;;;15.53;100.00;97108.22;4966429;28;20237;-57
2022/05/22 06:33:39;;;;;;;5.93;3.00;;;;;;;15.54;100.00;97106.38;4958908;28;20210;-57
2022/05/22 06:36:08;;;;;;;5.43;2.67;;;;;;;15.87;100.00;97111.41;4968611;28;20320;-57
2022/05/22 06:41:24;;;;;;;2.97;2.87;;;;;;;16.04;100.00;97105.53;4952957;28;20861;-58
2022/05/22 06:43:53;;;;;;;4.70;2.83;;;;;;;16.11;100.00;97103.63;4931943;28;20217;-60
2022/05/22 06:46:27;;;;;;;2.73;2.53;;;;;;;16.16;100.00;97105.59;4968465;28;20294;-56
2022/05/22 06:48:56;;;;;;;7.50;3.50;;;;;;;16.33;100.00;97101.31;4962442;28;20209;-58
2022/05/22 06:51:24;;;;;;;2.97;2.38;;;;;;;16.42;100.00;97101.81;4967996;28;20460;-53
2022/05/22 06:53:53;;;;;;;2.83;2.33;;;;;;;16.45;100.00;97095.22;4956260;28;20324;-55
2022/05/22 06:56:22;;;;;;;2.50;2.30;;;;;;;16.56;100.00;97099.00;4945349;28;20248;-55
2022/05/22 06:58:50;;;;;;;2.23;2.03;;;;;;;16.56;100.00;97096.34;4938538;28;20301;-60
2022/05/22 07:01:18;;;;;;;2.20;2.00;;;;;;;16.49;100.00;97097.25;4951241;28;20297;-58
2022/05/22 07:03:47;;;;;;;1.93;1.83;;;;;;;16.65;100.00;97097.66;4937135;28;20209;-54
2022/05/22 07:06:15;;;;;;;1.97;1.87;;;;;;;16.85;96.99;97096.56;4973845;28;20236;-59
2022/05/22 07:08:43;;;;;;;2.00;1.80;;;;;;;17.11;93.76;97103.47;4938384;28;20218;-58
2022/05/22 07:13:59;;;;;;;1.43;1.43;;;;;;;17.00;92.80;97096.19;4915902;28;21487;-55
2022/05/22 07:16:27;;;;;;;1.40;1.40;;;;;;;17.07;95.03;97099.59;4971351;28;20218;-57
2022/05/22 07:18:55;;;;;;;3.30;2.40;;;;;;;17.10;91.60;97093.81;4959338;28;20213;-57
2022/05/22 07:21:24;;;;;;;2.50;2.30;;;;;;;17.34;88.13;97097.34;4971051;28;20218;-58
2022/05/22 07:23:52;;;;;;;2.13;1.63;;;;;;;17.56;88.38;97104.03;4935539;28;20220;-60
2022/05/22 07:26:24;;;;;;;2.67;1.63;;;;;;;17.47;89.99;97095.50;4972324;28;20325;-60
2022/05/22 07:28:52;;;;;;;2.10;1.93;;;;;;;17.60;86.28;97095.28;4951560;28;20214;-60
2022/05/22 07:31:22;;;;;;;1.87;1.73;;;;;;;17.57;79.94;97089.59;4926766;28;20294;-56
2022/05/22 07:33:51;;;;;;;1.47;1.37;;;;;;;17.21;79.01;97092.19;4965847;28;20559;-57
2022/05/22 07:36:19;;;;;;;1.70;1.60;;;;;;;17.30;78.14;97081.97;4957379;28;20510;-58
2022/05/22 07:38:48;;;;;;;3.13;1.63;;;;;;;17.20;82.39;97078.00;4950595;28;20408;-60
2022/05/22 07:41:16;;;;;;;1.73;1.60;;;;;;;17.28;83.70;97081.38;4955221;28;20220;-60
2022/05/22 07:43:46;;;;;;;2.67;1.60;;;;;;;17.19;76.44;97081.72;4951694;28;20205;-59
2022/05/22 07:46:14;;;;;;;2.10;1.73;;;;;;;17.46;88.10;97069.75;4929998;28;20229;-57
2022/05/22 07:48:43;;;;;;;2.90;1.37;;;;;;;17.73;76.21;97064.78;4944544;28;20210;-54
2022/05/22 07:51:13;;;;;;;2.17;1.27;;;;;;;17.69;76.32;97057.44;4955137;28;20349;-59
2022/05/22 07:53:41;;;;;;;3.13;1.55;;;;;;;17.60;76.33;97056.97;4954945;28;20855;-60
2022/05/22 07:56:13;;;;;;;3.83;1.47;;;;;;;17.60;72.87;97063.13;4951240;28;20274;-56
2022/05/22 07:58:41;;;;;;;1.80;1.53;;;;;;;17.90;73.28;97050.69;4956157;28;20761;-54
2022/05/22 08:01:11;;;;;;;2.05;1.50;;;;;;;18.11;70.18;97049.28;4941670;28;20491;-57
2022/05/22 08:03:40;;;;;;;1.73;1.63;;;;;;;18.21;68.32;97051.38;4963039;28;21209;-53
2022/05/22 08:06:09;;;;;;;1.70;1.60;;;;;;;18.25;66.71;97040.97;4960557;28;20225;-57
2022/05/22 08:08:37;;;;;;;2.00;1.83;;;;;;;18.33;73.51;97037.91;4954625;28;20299;-53
2022/05/22 08:11:11;;;;;;;3.60;2.60;;;;;;;18.45;65.79;97040.56;4952012;28;20397;-53
2022/05/22 08:13:39;;;;;;;3.53;2.23;;;;;;;18.54;65.98;97041.00;4953883;28;20216;-49
2022/05/22 08:16:08;;;;;;;1.67;1.57;;;;;;;18.27;72.44;97038.88;4952280;28;20309;-58
2022/05/22 08:18:38;;;;;;;3.97;1.80;;;;;;;18.47;73.26;97043.81;4948492;28;20208;-56
2022/05/22 08:21:07;;;;;;;2.30;1.50;;;;;;;18.46;66.04;97037.66;4959943;28;20214;-49
2022/05/22 08:23:35;;;;;;;1.93;1.83;;;;;;;18.60;65.76;97029.31;4941844;28;20237;-47
2022/05/22 08:26:03;;;;;;;2.67;1.50;;;;;;;18.64;72.34;97027.78;4954778;28;20312;-46
2022/05/22 08:28:32;;;;;;;2.90;1.80;;;;;;;18.79;63.64;97032.63;4954775;28;20952;-51
2022/05/22 08:31:00;;;;;;;1.77;1.43;;;;;;;18.90;63.39;97033.63;4971020;28;21055;-49
2022/05/22 08:33:28;;;;;;;3.57;1.60;;;;;;;18.71;65.82;97035.69;4934580;28;20324;-46
2022/05/22 08:35:58;;;;;;;2.37;1.93;;;;;;;18.77;59.86;97027.50;4958352;28;20214;-47
2022/05/22 08:38:26;;;;;;;3.87;2.13;;;;;;;18.97;60.94;97028.13;4954801;28;20214;-44
2022/05/22 08:40:59;;;;;;;3.27;2.13;;;;;;;19.12;63.67;97022.19;4937473;28;20621;-48
2022/05/22 08:43:34;;;;;;;1.83;1.53;;;;;;;19.23;61.60;97026.69;4968192;28;20237;-54
2022/05/22 08:46:08;;;;;;;2.97;2.37;;;;;;;19.00;59.96;97023.09;4956511;28;20300;-49
2022/05/22 08:48:42;;;;;;;2.80;1.98;;;;;;;19.06;56.24;97016.75;4929724;28;20550;-55
2022/05/22 08:51:16;;;;;;;3.50;2.50;;;;;;;18.95;61.55;97012.22;4959563;28;20456;-48
2022/05/22 08:53:48;;;;;;;1.77;1.67;;;;;;;18.32;62.55;97015.66;4956171;28;20241;-54
2022/05/22 08:59:20;;;;;;;5.33;1.90;;;;;;;19.13;65.19;97005.03;4960410;28;20560;-48
2022/05/22 09:01:52;;;;;;;4.37;1.87;;;;;;;19.44;61.64;96997.44;4967839;28;20288;-49
2022/05/22 09:04:30;;;;;;;1.50;1.40;;;;;;;19.35;61.14;96997.06;4916589;28;20253;-46
2022/05/22 09:07:11;;;;;;;1.77;1.67;;;;;;;19.50;57.66;96999.16;4965516;28;20217;-50
2022/05/22 09:09:41;;;;;;;3.80;3.50;;;;;;;19.89;56.42;96982.22;4956336;28;20325;-54
2022/05/22 09:12:32;;;;;;;2.40;1.63;;;;;;;20.49;55.45;96985.91;4962497;28;20297;-48
2022/05/22 09:15:07;;;;;;;4.40;1.77;;;;;;;20.33;53.42;96986.81;4956729;28;20333;-46
2022/05/22 09:17:40;;;;;;;1.83;1.73;;;;;;;20.01;57.02;96992.91;4920189;28;20722;-46
2022/05/22 09:20:16;;;;;;;1.53;1.43;;;;;;;19.52;55.91;96994.38;4972275;28;20397;-55
2022/05/22 09:22:59;;;;;;;2.83;1.77;;;;;;;19.25;58.37;96995.03;4960057;28;20300;-48
2022/05/22 09:25:36;;;;;;;2.00;1.90;;;;;;;19.52;58.15;96994.38;4939646;28;20237;-47
2022/05/22 09:28:12;;;;;;;2.53;2.00;;;;;;;20.20;53.52;96988.81;4952180;28;20225;-58
2022/05/22 09:30:45;;;;;;;1.80;1.60;;;;;;;20.05;52.16;96973.31;4954118;28;20856;-52
2022/05/22 09:33:21;;;;;;;1.80;1.70;;;;;;;19.82;56.90;96985.09;4940379;28;20209;-58
2022/05/22 09:35:58;;;;;;;1.60;1.50;;;;;;;20.24;50.08;96989.94;4972112;28;20225;-51
2022/05/22 09:38:44;;;;;;;1.70;1.60;;;;;;;19.97;55.37;96989.09;4954015;28;20780;-51
2022/05/22 09:41:31;;;;;;;1.50;1.40;;;;;;;20.55;53.55;96984.09;4958181;28;20245;-58
2022/05/22 09:44:44;;;;;;;4.20;1.50;;;;;;;20.66;51.05;96977.75;4948954;28;20236;-56
2022/05/22 09:47:51;;;;;;;2.92;1.90;;;;;;;20.63;52.35;96967.50;4941343;28;20853;-56
2022/05/22 09:50:47;;;;;;;3.40;1.80;;;;;;;20.56;50.46;96976.81;4908477;28;20392;-48
2022/05/22 09:53:21;;;;;;;1.70;1.60;;;;;;;20.53;49.76;96975.47;4959254;28;20352;-50
2022/05/22 09:55:51;;;;;;;1.60;1.50;;;;;;;20.21;50.32;96963.53;4943226;28;20544;-52
2022/05/22 09:58:52;;;;;;;2.83;1.60;;;;;;;20.05;56.50;96964.44;4954923;28;20293;-61
2022/05/22 10:01:25;;;;;;;2.07;1.47;;;;;;;19.61;57.55;96966.00;4943674;28;20308;-55
2022/05/22 10:04:07;;;;;;;1.70;1.57;;;;;;;19.61;54.48;96966.00;4932877;28;21046;-47
2022/05/22 10:06:38;;;;;;;3.53;2.07;;;;;;;19.74;53.81;96946.03;4964843;28;20312;-57
2022/05/22 10:09:16;;;;;;;1.80;1.70;;;;;;;20.17;58.63;96937.44;4960753;28;20671;-44
2022/05/22 10:11:59;;;;;;;3.40;2.30;;;;;;;20.75;54.91;96940.41;4939214;28;20215;-56
2022/05/22 10:14:54;;;;;;;2.03;1.70;;;;;;;21.25;47.00;96938.41;4942907;28;20419;-55
2022/05/22 10:17:36;;;;;;;2.10;1.57;;;;;;;21.36;42.96;96939.28;4957924;28;20530;-58
2022/05/22 10:20:09;;;;;;;2.20;1.77;;;;;;;21.38;44.59;96942.53;4936874;28;20363;-54
2022/05/22 10:22:48;;;;;;;1.60;1.17;;;;;;;21.30;48.62;96940.31;4966034;28;20305;-56
2022/05/22 10:25:28;;;;;;;3.30;1.47;;;;;;;20.30;49.51;96941.59;4955063;28;20313;-49
2022/05/22 10:28:01;;;;;;;2.57;1.50;;;;;;;20.61;50.13;96942.72;4961191;28;20225;-47
2022/05/22 10:30:34;;;;;;;1.67;1.57;;;;;;;20.88;52.02;96938.41;4951883;28;20216;-56
2022/05/22 10:33:05;;;;;;;1.40;1.40;;;;;;;21.00;54.40;96943.59;4969524;28;20217;-53
2022/05/22 10:35:40;;;;;;;2.87;1.90;;;;;;;20.32;55.49;96942.97;4933791;28;20663;-53
2022/05/22 10:38:12;;;;;;;2.40;1.93;;;;;;;20.42;54.44;96939.56;4952268;28;20673;-57
2022/05/22 10:43:37;;;;;;;2.07;1.80;;;;;;;19.91;54.12;96935.25;4948108;28;20229;-51
2022/05/22 10:46:05;;;;;;;1.97;1.67;;;;;;;19.82;59.13;96925.94;4951669;28;20229;-57
2022/05/22 10:48:35;;;;;;;1.80;1.70;;;;;;;19.90;56.00;96914.81;4962109;28;20368;-45
2022/05/22 10:51:06;;;;;;;5.30;1.90;;;;;;;20.16;54.38;96912.41;4936868;28;20222;-58
2022/05/22 10:53:35;;;;;;;4.07;2.33;;;;;;;20.88;58.71;96912.28;4959529;28;20326;-48
2022/05/22 10:56:06;;;;;;;1.97;1.77;;;;;;;21.26;49.63;96909.59;4953834;28;20261;-53
2022/05/22 10:58:36;;;;;;;3.17;2.10;;;;;;;20.90;46.96;96909.31;4947036;28;21268;-51
2022/05/22 11:01:07;;;;;;;2.83;1.70;;;;;;;20.86;49.16;96906.34;4944308;28;20505;-54
2022/05/22 11:03:36;;;;;;;2.17;1.87;;;;;;;20.44;49.20;96899.75;4952013;28;20233;-57
2022/05/22 11:06:16;;;;;;;2.80;1.67;;;;;;;20.72;50.71;96903.25;4949754;28;21198;-61
2022/05/22 11:08:50;;;;;;;3.03;1.80;;;;;;;21.04;50.96;96894.38;4973093;28;20704;-53
2022/05/22 11:11:19;;;;;;;2.83;2.17;;;;;;;20.90;48.68;96903.94;4953744;28;20667;-48
2022/05/22 11:13:50;;;;;;;2.37;2.17;;;;;;;21.10;48.94;96897.88;4967618;28;20487;-55
2022/05/22 11:16:20;;;;;;;3.67;1.73;;;;;;;21.11;48.77;96900.34;4939019;28;20765;-49
2022/05/22 11:18:49;;;;;;;2.87;1.73;;;;;;;21.48;47.21;96893.25;4957316;28;20206;-50
2022/05/22 11:21:26;;;;;;;1.57;1.47;;;;;;;21.73;48.43;96875.63;4927518;28;21850;-53
2022/05/22 11:24:19;;;;;;;2.93;1.97;;;;;;;21.62;49.37;96888.22;4969470;28;20634;-50
2022/05/22 11:26:58;;;;;;;1.77;1.60;;;;;;;21.85;48.47;96888.06;4967172;28;20670;-47
2022/05/22 11:29:41;;;;;;;1.67;1.23;;;;;;;22.24;47.22;96880.38;4946266;28;20221;-48
2022/05/22 11:32:28;;;;;;;2.73;2.07;;;;;;;22.28;47.89;96875.22;4954717;28;20208;-59
2022/05/22 11:35:11;;;;;;;1.50;1.40;;;;;;;22.26;46.20;96878.22;4954503;28;20230;-55
2022/05/22 11:37:46;;;;;;;1.70;1.60;;;;;;;21.78;44.99;96886.44;4931409;28;20388;-52
2022/05/22 11:40:27;;;;;;;2.30;2.10;;;;;;;21.07;46.59;96891.16;4969454;28;20725;-47
2022/05/22 11:43:05;;;;;;;2.97;1.70;;;;;;;21.45;47.62;96871.44;4954218;28;20292;-58
2022/05/22 11:45:45;;;;;;;3.10;1.70;;;;;;;21.56;48.23;96862.31;4956549;28;20472;-59
2022/05/22 11:48:30;;;;;;;1.40;1.30;;;;;;;21.99;48.81;96851.44;4940809;28;20257;-61
2022/05/22 11:51:04;;;;;;;2.33;1.50;;;;;;;22.49;48.11;96851.00;4967906;28;20209;-54
2022/05/22 11:53:56;;;;;;;2.57;2.10;;;;;;;23.21;53.19;96856.34;4934201;28;21494;-50
2022/05/22 11:56:41;;;;;;;3.50;1.87;;;;;;;23.25;43.95;96857.44;4970162;28;20345;-56
2022/05/22 11:59:17;;;;;;;2.60;1.30;;;;;;;23.06;42.33;96857.16;4953344;28;20244;-56
2022/05/22 12:01:54;;;;;;;1.93;1.83;;;;;;;22.70;42.99;96852.59;4955726;28;20788;-49
2022/05/22 12:04:36;;;;;;;1.50;1.40;;;;;;;22.66;45.72;96846.13;4940267;28;20225;-51
2022/05/22 12:07:14;;;;;;;3.50;1.77;;;;;;;22.81;42.90;96842.59;4968038;28;20264;-57
2022/05/22 12:09:49;;;;;;;1.73;1.60;;;;;;;22.64;40.95;96832.09;4909799;28;20985;-51